Time;durP1;ratioP1;P1;durP2;ratioP2;P2;SDS_P1;SDS_P2;PMS_P1;PMS_P2;Temp;Humidity;BMP_temperature;BMP_pressure;BME280_temperature;BME280_humidity;BME280_pressure;Samples;Min_cycle;Max_cycle;Signal;HPM_P1;HPM_P2
2022/01/25 00:15:03;;;;;;;26.15;16.77;;;3.60;99.90;;;4.39;100.00;102318.72;5015315;28;20268;-74
2022/01/25 00:27:43;;;;;;;32.33;19.80;;;3.70;99.90;;;4.46;100.00;102317.34;4986118;28;20108;-73
2022/01/25 00:30:42;;;;;;;28.00;18.58;;;3.70;99.90;;;4.43;100.00;102317.88;4995361;28;20436;-73
2022/01/25 00:33:08;;;;;;;28.50;17.85;;;3.70;99.90;;;4.43;100.00;102317.88;4995151;28;20433;-72
2022/01/25 00:35:37;;;;;;;30.02;19.48;;;3.70;99.90;;;4.42;100.00;102312.63;4994868;28;20044;-73
2022/01/25 00:38:03;;;;;;;30.83;19.13;;;3.60;99.90;;;4.45;100.00;102314.84;4994575;28;20490;-73
2022/01/25 00:40:28;;;;;;;30.52;17.95;;;3.60;99.90;;;4.45;100.00;102320.38;4994613;28;20035;-71
2022/01/25 00:42:54;;;;;;;31.33;20.17;;;3.70;99.90;;;4.50;100.00;102323.97;4994476;28;20030;-72
2022/01/25 00:45:22;;;;;;;28.63;18.48;;;3.70;99.90;;;4.46;100.00;102317.34;4977044;28;20544;-74
2022/01/25 00:47:50;;;;;;;32.13;19.33;;;3.70;99.90;;;4.46;100.00;102314.59;4993669;28;20029;-74
2022/01/25 00:50:16;;;;;;;31.30;19.15;;;3.70;99.90;;;4.50;100.00;102326.75;4995335;28;20018;-74
2022/01/25 00:55:14;;;;;;;34.63;20.42;;;3.70;99.90;;;4.45;100.00;102318.44;4995559;28;20045;-73
2022/01/25 00:57:41;;;;;;;34.08;19.55;;;3.70;99.90;;;4.45;100.00;102323.16;4995813;28;20022;-74
2022/01/25 01:00:12;;;;;;;30.90;19.05;;;3.70;99.90;;;4.44;100.00;102316.78;4996194;28;20041;-73
2022/01/25 01:02:39;;;;;;;29.35;19.02;;;3.70;99.90;;;4.45;100.00;102314.84;4995286;28;20027;-74
2022/01/25 01:05:06;;;;;;;30.70;18.90;;;3.70;99.90;;;4.36;100.00;102316.50;4995211;28;20030;-72
2022/01/25 01:07:35;;;;;;;35.90;20.70;;;3.70;99.90;;;4.30;100.00;102314.84;4977418;28;20030;-73
2022/01/25 01:10:02;;;;;;;39.10;20.50;;;3.60;99.90;;;4.38;100.00;102312.34;4994509;28;20077;-73
2022/01/25 01:35:03;;;;;;;;;;;3.60;99.90;;;4.42;100.00;102299.63;5034138;28;20072;-73
2022/01/25 01:48:08;;;;;;;43.42;22.17;;;3.60;99.90;;;4.38;100.00;102303.22;5033451;28;20041;-73
2022/01/25 01:50:37;;;;;;;34.53;20.38;;;3.60;99.90;;;4.36;100.00;102295.22;5033238;28;20083;-73
2022/01/25 01:53:07;;;;;;;45.72;22.35;;;3.60;99.90;;;4.39;100.00;102302.13;5015286;28;20029;-73
2022/01/25 01:55:36;;;;;;;46.20;24.10;;;3.60;99.90;;;4.41;100.00;102291.59;5032859;28;20354;-72
2022/01/25 01:58:05;;;;;;;49.42;24.83;;;3.70;99.90;;;4.41;100.00;102305.44;5032580;28;20033;-73
2022/01/25 02:00:42;;;;;;;56.65;26.95;;;3.60;99.90;;;4.40;100.00;102306.56;5014762;28;20376;-71
2022/01/25 02:03:17;;;;;;;59.58;28.70;;;3.60;99.90;;;4.41;100.00;102297.97;5050342;28;20029;-72
2022/01/25 02:05:43;;;;;;;64.22;29.65;;;3.70;99.90;;;4.40;100.00;102301.84;5049261;28;20043;-72
2022/01/25 02:08:12;;;;;;;67.43;31.20;;;3.60;99.90;;;4.34;100.00;102296.56;5046201;28;20036;-72
2022/01/25 02:10:39;;;;;;;66.40;29.17;;;3.60;99.90;;;4.36;100.00;102294.38;5032612;28;20095;-74
2022/01/25 02:13:10;;;;;;;61.42;27.77;;;3.60;99.90;;;4.37;100.00;102293.25;5032238;28;20369;-73
2022/01/25 02:15:38;;;;;;;50.78;25.33;;;3.60;99.90;;;4.35;100.00;102289.94;5031703;28;20021;-73
2022/01/25 02:23:44;;;;;;;48.97;24.13;;;3.60;99.90;;;4.42;100.00;102271.13;5033692;28;20009;-72
2022/01/25 02:26:13;;;;;;;40.03;21.30;;;3.70;99.90;;;4.36;100.00;102264.78;5023505;28;20113;-73
2022/01/25 02:28:44;;;;;;;40.40;21.50;;;3.60;99.90;;;4.33;100.00;102265.34;5012952;28;20104;-72
2022/01/25 02:31:20;;;;;;;52.60;24.65;;;3.60;99.90;;;4.18;100.00;102271.69;5013406;28;20038;-72
2022/01/25 02:33:46;;;;;;;45.20;22.73;;;3.60;99.90;;;4.23;100.00;102265.34;5012889;28;20089;-72
2022/01/25 02:36:28;;;;;;;42.33;22.88;;;3.60;99.90;;;4.27;100.00;102266.44;5013447;28;20119;-73
2022/01/25 02:38:57;;;;;;;45.28;24.00;;;3.60;99.90;;;4.30;100.00;102271.44;5013132;28;20084;-72
2022/01/25 02:41:24;;;;;;;47.22;24.40;;;3.60;99.90;;;4.30;100.00;102276.13;5015754;28;20030;-73
2022/01/25 02:43:52;;;;;;;40.35;22.10;;;3.60;99.90;;;4.29;100.00;102267.00;5013679;28;20037;-73
2022/01/25 02:49:12;;;;;;;39.33;21.58;;;3.60;99.90;;;4.29;100.00;102269.75;4993265;28;20038;-73
2022/01/25 02:51:48;;;;;;;39.22;21.48;;;3.60;99.90;;;4.33;100.00;102270.88;5011360;28;20036;-74
2022/01/25 02:54:17;;;;;;;43.30;21.55;;;3.60;99.90;;;4.35;100.00;102268.66;5012647;28;20116;-74
2022/01/25 02:56:49;;;;;;;36.03;21.08;;;3.60;99.90;;;4.31;100.00;102275.00;5012008;28;20516;-73
2022/01/25 02:59:17;;;;;;;33.45;20.35;;;3.50;99.90;;;4.28;100.00;102264.50;5012596;28;20065;-73
2022/01/25 03:01:48;;;;;;;35.60;21.20;;;3.60;99.90;;;4.18;100.00;102266.16;5012341;28;20044;-73
2022/01/25 03:04:20;;;;;;;36.17;20.17;;;3.50;99.90;;;4.21;100.00;102259.25;5012090;28;20041;-73
2022/01/25 03:06:47;;;;;;;34.25;20.08;;;3.50;99.90;;;4.31;100.00;102267.53;5012267;28;20025;-73
2022/01/25 03:09:14;;;;;;;36.90;20.73;;;3.50;99.90;;;4.29;100.00;102261.47;5012188;28;20444;-74
2022/01/25 03:11:42;;;;;;;41.03;22.05;;;3.50;99.90;;;4.27;100.00;102266.44;5012324;28;20084;-73
2022/01/25 03:14:10;;;;;;;39.88;22.00;;;3.50;99.90;;;4.25;100.00;102275.00;5012002;28;20034;-73
2022/01/25 03:16:45;;;;;;;40.25;22.73;;;3.50;99.90;;;4.25;100.00;102265.88;5014201;28;20493;-73
2022/01/25 03:22:18;;;;;;;43.80;23.00;;;3.50;99.90;;;4.25;100.00;102266.72;5012716;28;20045;-71
2022/01/25 03:24:47;;;;;;;35.45;20.73;;;3.50;99.90;;;4.26;100.00;102262.03;5012591;28;20030;-72
2022/01/25 03:27:13;;;;;;;36.08;20.35;;;3.50;99.90;;;4.25;100.00;102266.72;5033729;28;20503;-72
2022/01/25 03:29:39;;;;;;;41.22;22.08;;;3.50;99.90;;;4.25;100.00;102263.94;5037009;28;20025;-72
2022/01/25 03:32:06;;;;;;;32.55;20.20;;;3.50;99.90;;;4.25;100.00;102263.13;5036392;28;20084;-72
2022/01/25 03:34:32;;;;;;;36.72;20.75;;;3.50;99.90;;;4.24;100.00;102262.28;5019382;28;20116;-73
2022/01/25 03:37:06;;;;;;;41.47;22.15;;;3.50;99.90;;;4.22;100.00;102258.97;5036513;28;20072;-72
2022/01/25 03:39:32;;;;;;;34.72;19.92;;;3.50;99.90;;;4.25;100.00;102252.06;5019216;28;20408;-73
2022/01/25 03:41:58;;;;;;;44.13;23.60;;;3.50;99.90;;;4.27;100.00;102251.78;5036622;28;20038;-73
2022/01/25 03:44:25;;;;;;;44.80;23.77;;;3.50;99.90;;;4.28;100.00;102253.44;5035860;28;20070;-74
2022/01/25 03:52:06;;;;;;;35.23;19.87;;;3.50;99.90;;;4.28;100.00;102247.91;5036848;28;20052;-72
2022/01/25 03:54:33;;;;;;;37.38;21.88;;;3.50;99.90;;;4.24;100.00;102253.16;5037023;28;20030;-73
2022/01/25 03:56:59;;;;;;;38.38;20.77;;;3.50;99.90;;;4.20;100.00;102249.31;5037316;28;20053;-75
2022/01/25 03:59:25;;;;;;;38.13;21.45;;;3.50;99.90;;;4.16;100.00;102245.41;5060673;23;20045;-79
2022/01/25 04:01:53;;;;;;;34.88;19.17;;;3.50;99.90;;;4.17;100.00;102242.34;5039889;28;20029;-78
2022/01/25 04:04:23;;;;;;;32.22;19.05;;;3.50;99.90;;;4.18;100.00;102248.72;5040251;28;20032;-80
2022/01/25 04:06:51;;;;;;;37.72;21.92;;;3.50;99.90;;;4.28;100.00;102243.19;5021886;28;20443;-79
2022/01/25 04:09:21;;;;;;;40.55;22.63;;;3.50;99.90;;;4.27;100.00;102249.81;5018130;28;20489;-79
2022/01/25 04:11:53;;;;;;;36.78;20.52;;;3.50;99.90;;;4.24;100.00;102253.97;5021501;28;20030;-79
2022/01/25 04:14:19;;;;;;;40.05;22.02;;;3.50;99.90;;;4.08;100.00;102252.31;5039025;28;20030;-80
2022/01/25 04:16:57;;;;;;;33.88;20.17;;;3.50;99.90;;;4.16;100.00;102245.41;5039011;28;20144;-80
2022/01/25 04:19:34;;;;;;;34.80;20.17;;;3.40;99.90;;;4.16;100.00;102246.25;5020275;28;20029;-80
2022/01/25 04:25:04;;;;;;;35.20;20.67;;;3.40;99.90;;;4.12;100.00;102230.47;5038028;28;20441;-79
2022/01/25 04:27:34;;;;;;;37.08;20.73;;;3.40;99.90;;;4.07;100.00;102233.25;5017295;28;20026;-81
2022/01/25 04:30:03;;;;;;;46.10;22.95;;;3.40;99.90;;;4.09;100.00;102231.03;5017848;28;20049;-79
2022/01/25 04:32:44;;;;;;;39.63;22.33;;;3.40;99.90;;;4.06;100.00;102228.81;5016686;28;20040;-80
2022/01/25 04:54:41;;;;;;;;;;;3.40;99.90;;;4.07;100.00;102224.97;4999526;28;20034;-80
2022/01/25 05:02:35;;;;;;;111.95;50.65;;;3.40;99.90;;;4.13;100.00;102232.16;5016290;28;20043;-80
2022/01/25 05:05:13;;;;;;;75.95;39.65;;;3.40;99.90;;;4.19;100.00;102234.63;5037764;28;20338;-81
2022/01/25 05:07:57;;;;;;;71.10;39.10;;;3.40;99.90;;;4.20;100.00;102233.53;5037430;28;20017;-79
2022/01/25 05:10:23;;;;;;;49.65;28.30;;;3.40;99.90;;;4.20;100.00;102235.47;5038432;28;20423;-79
2022/01/25 05:13:07;;;;;;;47.53;23.02;;;3.50;99.90;;;4.18;100.00;102241.25;5037696;28;20052;-78
2022/01/25 05:18:19;;;;;;;36.55;20.30;;;3.50;99.90;;;4.12;100.00;102233.25;5038824;28;20036;-80
2022/01/25 05:23:33;;;;;;;32.80;19.13;;;3.40;99.90;;;4.14;100.00;102239.34;5038180;28;20056;-78
2022/01/25 05:25:59;;;;;;;32.45;18.45;;;3.40;99.90;;;4.14;100.00;102228.28;5034340;28;20036;-77
2022/01/25 05:28:25;;;;;;;36.60;20.23;;;3.40;99.90;;;4.14;100.00;102231.84;5020299;28;20025;-79
2022/01/25 05:30:51;;;;;;;37.08;20.85;;;3.40;99.90;;;4.15;100.00;102235.47;5037665;28;20064;-80
2022/01/25 05:33:17;;;;;;;40.50;22.08;;;3.40;99.90;;;4.13;100.00;102230.22;5019194;28;20036;-80
2022/01/25 05:35:52;;;;;;;38.30;20.35;;;3.40;99.90;;;4.14;100.00;102226.31;5052274;28;20045;-81
2022/01/25 05:38:18;;;;;;;39.08;21.10;;;3.40;99.90;;;4.11;100.00;102223.31;5055542;28;20081;-79
2022/01/25 05:40:48;;;;;;;36.75;19.60;;;3.40;99.90;;;4.08;100.00;102223.84;5046402;28;20072;-78
2022/01/25 05:45:58;;;;;;;37.22;21.73;;;3.30;99.90;;;4.08;100.00;102234.91;5037542;28;20030;-78
2022/01/25 05:48:28;;;;;;;39.13;20.88;;;3.30;99.90;;;4.07;100.00;102228.56;5019102;28;20029;-79
2022/01/25 05:50:58;;;;;;;38.17;20.95;;;3.30;99.90;;;4.04;100.00;102231.06;5036172;28;20037;-78
2022/01/25 05:53:27;;;;;;;39.35;22.08;;;3.30;99.90;;;3.96;100.00;102234.34;5036748;28;20036;-79
2022/01/25 05:55:54;;;;;;;35.72;20.27;;;3.30;99.90;;;3.95;100.00;102221.66;5036770;28;20087;-79
2022/01/25 05:58:21;;;;;;;42.42;20.13;;;3.30;99.90;;;3.87;100.00;102220.25;5018625;28;20102;-79
2022/01/25 06:00:47;;;;;;;37.67;20.80;;;3.30;99.90;;;3.89;100.00;102215.25;5039757;28;20052;-78
2022/01/25 06:03:13;;;;;;;39.40;20.83;;;3.30;99.90;;;3.92;100.00;102216.66;5021778;28;20124;-81
2022/01/25 06:05:43;;;;;;;41.28;21.25;;;3.30;99.90;;;3.96;100.00;102224.13;5040507;28;20104;-78
2022/01/25 06:08:09;;;;;;;39.28;20.63;;;3.30;99.90;;;3.99;100.00;102215.28;5038456;28;20045;-76
2022/01/25 06:10:35;;;;;;;36.10;20.40;;;3.30;99.90;;;3.98;100.00;102212.81;5019226;28;20298;-81
2022/01/25 06:13:01;;;;;;;37.25;20.38;;;3.30;99.90;;;3.97;100.00;102216.66;5037942;28;20040;-79
2022/01/25 06:15:28;;;;;;;32.42;18.50;;;3.30;99.90;;;4.01;100.00;102213.09;5019440;28;20384;-78
2022/01/25 06:17:54;;;;;;;38.15;20.95;;;3.30;99.90;;;4.02;100.00;102211.97;5037022;28;20021;-78
2022/01/25 06:20:19;;;;;;;38.22;20.55;;;3.20;99.90;;;4.00;100.00;102208.66;5019863;28;20025;-80
2022/01/25 06:22:46;;;;;;;44.42;21.05;;;3.30;99.90;;;3.96;100.00;102215.00;5022630;28;20036;-78
2022/01/25 06:25:12;;;;;;;36.17;19.73;;;3.30;99.90;;;3.96;100.00;102226.06;5037755;28;20053;-77
2022/01/25 06:27:41;;;;;;;36.85;19.50;;;3.30;99.90;;;4.00;100.00;102228.00;5036781;28;20100;-79
2022/01/25 06:30:11;;;;;;;35.35;19.70;;;3.20;99.90;;;3.99;100.00;102228.25;5025415;28;20059;-78
2022/01/25 06:32:37;;;;;;;33.22;19.00;;;3.30;99.90;;;3.97;100.00;102225.78;5038962;28;20034;-78
2022/01/25 06:35:06;;;;;;;34.90;19.67;;;3.20;99.90;;;3.97;100.00;102225.78;5040376;28;20093;-79
2022/01/25 06:37:32;;;;;;;43.22;21.75;;;3.30;99.90;;;3.98;100.00;102237.69;5023962;28;20503;-77
2022/01/25 06:39:58;;;;;;;36.00;19.63;;;3.30;99.90;;;3.98;100.00;102230.19;5038833;28;20034;-78
2022/01/25 06:42:30;;;;;;;37.20;20.67;;;3.30;99.90;;;3.96;100.00;102228.81;5044563;28;20093;-77
2022/01/25 06:45:02;;;;;;;36.65;21.23;;;3.30;99.90;;;3.98;100.00;102234.91;5025782;28;20030;-80
2022/01/25 06:47:29;;;;;;;41.63;22.65;;;3.20;99.90;;;3.90;100.00;102230.75;5038122;28;20055;-79
2022/01/25 06:49:57;;;;;;;37.25;21.15;;;3.20;99.90;;;3.93;100.00;102230.22;5037017;28;20031;-79
2022/01/25 06:52:23;;;;;;;42.13;22.25;;;3.20;99.90;;;3.91;100.00;102235.19;5019290;28;20033;-76
2022/01/25 06:54:50;;;;;;;44.08;23.33;;;3.20;99.90;;;3.91;100.00;102240.72;5019136;28;20425;-79
2022/01/25 06:57:18;;;;;;;40.78;22.33;;;3.20;99.90;;;3.94;100.00;102247.63;5036661;28;20057;-78
2022/01/25 06:59:45;;;;;;;40.10;21.58;;;3.20;99.90;;;3.92;100.00;102239.59;5034325;28;20048;-80
2022/01/25 07:02:13;;;;;;;44.78;21.83;;;3.20;99.90;;;3.91;100.00;102245.41;5034423;28;20037;-81
2022/01/25 07:04:40;;;;;;;38.15;19.90;;;3.20;99.90;;;3.93;100.00;102241.25;5017506;28;20030;-79
2022/01/25 07:07:08;;;;;;;44.63;21.67;;;3.20;99.90;;;3.92;100.00;102247.06;5033829;28;20048;-80
2022/01/25 07:09:35;;;;;;;36.60;20.73;;;3.20;99.90;;;3.94;100.00;102250.38;5015819;28;20396;-83
2022/01/25 07:12:03;;;;;;;40.63;22.00;;;3.20;99.90;;;3.93;100.00;102245.97;5015075;28;20095;-81
2022/01/25 07:14:29;;;;;;;37.45;19.75;;;3.20;99.90;;;3.94;100.00;102250.38;5033372;28;20033;-81
2022/01/25 07:16:55;;;;;;;43.78;20.92;;;3.20;99.90;;;3.95;100.00;102239.03;5016014;28;20034;-80
2022/01/25 07:19:20;;;;;;;41.10;22.10;;;3.20;99.90;;;3.96;100.00;102245.41;5034717;28;20030;-79
2022/01/25 07:21:46;;;;;;;38.38;21.65;;;3.20;99.90;;;3.95;100.00;102255.63;5032962;28;20114;-77
2022/01/25 07:24:14;;;;;;;41.83;22.13;;;3.20;99.90;;;3.91;100.00;102250.94;5016067;28;20026;-79
2022/01/25 07:26:40;;;;;;;44.47;23.40;;;3.20;99.90;;;3.89;100.00;102244.84;5020231;28;20026;-78
2022/01/25 07:29:06;;;;;;;44.33;21.75;;;3.20;99.90;;;3.87;100.00;102247.06;5012002;28;20482;-79
2022/01/25 07:31:32;;;;;;;42.92;22.73;;;3.20;99.90;;;3.81;100.00;102245.41;5014239;28;20037;-79
2022/01/25 07:33:58;;;;;;;40.60;21.13;;;3.20;99.90;;;3.73;100.00;102241.22;5015115;28;20037;-80
2022/01/25 07:36:25;;;;;;;47.25;22.95;;;3.20;99.90;;;3.77;100.00;102241.50;5014540;28;20036;-79
2022/01/25 07:38:51;;;;;;;44.58;22.27;;;3.20;99.90;;;3.78;100.00;102243.19;5014379;28;20103;-80
2022/01/25 07:41:17;;;;;;;45.45;23.35;;;3.20;99.90;;;3.75;100.00;102243.72;5011911;28;20417;-78
2022/01/25 07:43:43;;;;;;;38.95;21.55;;;3.20;99.90;;;3.79;100.00;102240.13;5014499;28;20026;-80
2022/01/25 07:46:09;;;;;;;42.15;22.15;;;3.20;99.90;;;3.84;100.00;102237.38;5014065;28;20037;-79
2022/01/25 07:48:38;;;;;;;43.33;21.27;;;3.20;99.90;;;3.91;100.00;102245.41;5012792;28;20128;-80
2022/01/25 07:51:08;;;;;;;39.10;20.02;;;3.20;99.90;;;3.92;100.00;102244.28;5012914;28;20065;-80
2022/01/25 07:53:34;;;;;;;42.92;21.73;;;3.20;99.90;;;3.88;100.00;102238.50;5012128;28;20065;-82
2022/01/25 07:56:00;;;;;;;41.53;21.40;;;3.20;99.90;;;3.90;100.00;102233.53;5014761;28;20112;-78
2022/01/25 07:58:29;;;;;;;42.35;22.52;;;3.20;99.90;;;3.92;100.00;102233.22;5014342;28;20112;-82
2022/01/25 08:00:59;;;;;;;48.17;23.23;;;3.20;99.90;;;3.90;100.00;102235.44;5014012;28;20088;-78
2022/01/25 08:03:30;;;;;;;42.75;20.05;;;3.20;99.90;;;3.92;100.00;102236.00;5014683;28;20065;-81
2022/01/25 08:05:59;;;;;;;37.47;20.15;;;3.20;99.90;;;3.93;100.00;102238.50;5013312;28;20040;-79
2022/01/25 08:08:24;;;;;;;45.63;20.02;;;3.20;99.90;;;3.94;100.00;102242.94;5013872;28;20276;-80
2022/01/25 08:10:50;;;;;;;44.30;23.33;;;3.20;99.90;;;4.00;100.00;102252.88;5012670;28;20087;-80
2022/01/25 08:13:17;;;;;;;44.95;23.10;;;3.20;99.90;;;4.10;100.00;102252.91;5015222;28;20057;-81
2022/01/25 08:15:43;;;;;;;46.70;23.40;;;3.20;99.90;;;4.14;100.00;102251.22;5019277;28;20022;-78
2022/01/25 08:18:09;;;;;;;43.53;22.90;;;3.30;99.90;;;4.16;100.00;102259.25;5018137;28;20163;-81
2022/01/25 08:20:35;;;;;;;48.63;23.80;;;3.30;99.90;;;4.21;100.00;102262.00;5017358;28;20022;-81
2022/01/25 08:23:01;;;;;;;46.70;23.13;;;3.30;99.90;;;4.20;100.00;102263.13;5016885;28;20388;-80
2022/01/25 08:25:27;;;;;;;49.58;24.95;;;3.30;99.90;;;4.16;100.00;102259.25;5021843;28;20092;-80
2022/01/25 08:27:53;;;;;;;45.42;22.60;;;3.30;99.90;;;4.12;100.00;102256.19;5037295;28;20393;-81
2022/01/25 08:30:19;;;;;;;42.53;22.42;;;3.40;99.90;;;4.13;100.00;102255.09;5037936;28;20021;-82
2022/01/25 08:32:48;;;;;;;43.47;22.67;;;3.40;99.90;;;4.13;100.00;102246.81;5037973;28;20037;-80
2022/01/25 08:35:17;;;;;;;46.17;24.13;;;3.40;99.90;;;4.09;100.00;102247.63;5023823;28;20041;-80
2022/01/25 08:37:46;;;;;;;43.35;23.23;;;3.30;99.90;;;4.16;100.00;102257.31;5021476;28;20025;-79
2022/01/25 08:40:12;;;;;;;45.70;24.42;;;3.30;99.90;;;4.03;100.00;102257.03;5040727;28;20045;-79
2022/01/25 08:42:38;;;;;;;50.67;24.23;;;3.30;99.90;;;4.07;100.00;102261.75;5019471;28;20136;-80
2022/01/25 08:45:09;;;;;;;49.88;25.08;;;3.30;99.90;;;4.11;100.00;102257.31;5038647;28;20022;-80
2022/01/25 08:47:36;;;;;;;61.00;28.55;;;3.40;99.90;;;4.09;100.00;102262.28;5020242;28;20032;-80
2022/01/25 08:50:08;;;;;;;60.65;28.83;;;3.40;99.90;;;4.05;100.00;102257.56;5018789;28;20576;-82
2022/01/25 08:52:39;;;;;;;54.72;27.17;;;3.40;99.90;;;4.08;100.00;102266.16;5036280;28;20021;-77
2022/01/25 08:55:08;;;;;;;58.85;27.52;;;3.40;99.90;;;4.16;100.00;102259.25;5036547;28;20476;-79
2022/01/25 08:57:36;;;;;;;59.63;27.90;;;3.40;99.90;;;4.19;100.00;102256.75;5037096;28;20021;-81
2022/01/25 09:00:11;;;;;;;57.65;26.55;;;3.40;99.90;;;4.17;100.00;102267.25;5037584;28;20037;-84
2022/01/25 09:02:37;;;;;;;58.08;26.95;;;3.50;99.90;;;4.19;100.00;102267.00;5038402;28;20103;-84
2022/01/25 09:05:04;;;;;;;56.22;28.10;;;3.50;99.90;;;4.19;100.00;102267.00;5021379;28;20036;-82
2022/01/25 09:07:33;;;;;;;55.05;27.40;;;3.50;99.90;;;4.25;100.00;102268.66;5039383;28;20163;-84
2022/01/25 09:09:59;;;;;;;53.80;27.35;;;3.50;99.90;;;4.28;100.00;102270.03;5022094;28;20052;-82
2022/01/25 09:12:28;;;;;;;58.80;27.50;;;3.50;99.90;;;4.31;100.00;102272.22;5039690;28;20033;-83
2022/01/25 09:14:54;;;;;;;53.45;26.70;;;3.50;99.90;;;4.33;100.00;102272.81;5038830;28;20056;-84
2022/01/25 09:17:20;;;;;;;57.45;27.20;;;3.50;99.90;;;4.36;100.00;102273.09;5037367;28;20030;-83
2022/01/25 09:19:46;;;;;;;57.35;27.67;;;3.60;99.90;;;4.35;100.00;102279.72;5018938;28;20026;-81
2022/01/25 09:22:11;;;;;;;54.72;28.55;;;3.60;99.90;;;4.37;100.00;102271.13;5036999;28;20030;-81
2022/01/25 09:24:38;;;;;;;59.72;27.55;;;3.60;99.90;;;4.41;100.00;102278.59;5036413;28;20109;-81
2022/01/25 09:27:07;;;;;;;54.53;27.00;;;3.60;99.90;;;4.41;100.00;102275.84;5020366;28;20390;-82
2022/01/25 09:29:33;;;;;;;58.05;28.98;;;3.60;99.90;;;4.41;100.00;102275.84;5017360;28;20076;-81
2022/01/25 09:32:03;;;;;;;58.55;28.05;;;3.60;99.90;;;4.44;100.00;102274.44;5023522;28;20474;-82
2022/01/25 09:34:29;;;;;;;56.63;26.63;;;3.60;99.90;;;4.41;100.00;102272.22;5033158;28;20014;-79
2022/01/25 09:37:03;;;;;;;57.92;26.80;;;3.70;99.90;;;4.44;100.00;102272.50;5022951;28;20056;-80
2022/01/25 09:39:29;;;;;;;61.20;29.00;;;3.70;99.90;;;4.47;100.00;102269.19;5021153;28;20493;-80
2022/01/25 09:42:03;;;;;;;52.63;25.63;;;3.70;99.90;;;4.47;100.00;102271.97;5021262;28;20034;-80
2022/01/25 09:44:29;;;;;;;48.88;24.83;;;3.70;99.90;;;4.49;100.00;102275.28;5020130;28;20033;-82
2022/01/25 09:46:56;;;;;;;55.53;26.50;;;3.70;99.90;;;4.51;100.00;102280.53;5020114;28;20463;-82
2022/01/25 09:49:22;;;;;;;53.33;26.33;;;3.70;99.90;;;4.54;100.00;102285.50;5019762;28;20056;-78
2022/01/25 09:51:52;;;;;;;55.30;28.35;;;3.80;99.90;;;4.56;100.00;102280.53;5018619;28;20030;-79
2022/01/25 09:54:18;;;;;;;58.42;27.48;;;3.80;99.90;;;4.60;100.00;102284.38;5019867;28;20061;-81
2022/01/25 09:56:44;;;;;;;57.08;28.48;;;3.80;99.90;;;4.61;100.00;102291.59;5019178;28;20041;-81
2022/01/25 09:59:12;;;;;;;58.25;29.13;;;3.80;99.90;;;4.62;100.00;102282.19;5062416;23;20049;-75
2022/01/25 10:01:38;;;;;;;57.63;28.52;;;3.80;99.90;;;4.62;100.00;102291.31;5033158;28;20076;-72
2022/01/25 10:04:34;;;;;;;50.72;25.80;;;3.80;99.90;;;4.65;100.00;102301.84;5033075;28;20037;-73
2022/01/25 10:07:00;;;;;;;57.63;28.40;;;3.80;99.90;;;4.73;100.00;102304.03;5032830;28;20451;-74
2022/01/25 10:09:29;;;;;;;56.45;26.77;;;3.80;99.90;;;4.70;99.76;102307.34;5033317;28;20049;-73
2022/01/25 10:11:56;;;;;;;52.92;26.55;;;3.80;99.90;;;4.63;100.00;102305.97;5015305;28;20030;-74
2022/01/25 10:14:27;;;;;;;56.67;28.23;;;3.80;99.90;;;4.55;100.00;102310.16;5015341;28;20036;-75
2022/01/25 10:16:56;;;;;;;55.88;28.05;;;3.80;99.90;;;4.58;100.00;102303.22;5032797;28;20404;-74
2022/01/25 10:19:26;;;;;;;55.90;27.13;;;3.80;99.90;;;4.55;100.00;102306.53;5032771;28;20492;-74
2022/01/25 10:21:54;;;;;;;55.10;27.52;;;3.80;99.90;;;4.51;100.00;102302.66;5032449;28;20377;-73
2022/01/25 10:24:29;;;;;;;54.95;27.48;;;3.80;99.90;;;4.58;100.00;102308.75;5014843;28;20484;-73
2022/01/25 10:27:03;;;;;;;54.55;27.23;;;3.80;99.90;;;4.55;100.00;102304.63;5048107;28;20463;-73
2022/01/25 10:29:37;;;;;;;58.80;27.13;;;3.80;99.90;;;4.53;100.00;102306.81;5052789;28;20608;-74
2022/01/25 10:32:14;;;;;;;54.22;27.90;;;3.80;99.90;;;4.48;100.00;102308.75;5053192;28;20492;-74
2022/01/25 10:34:46;;;;;;;59.65;28.13;;;3.80;99.90;;;4.52;100.00;102309.88;5055614;28;20459;-73
2022/01/25 10:37:24;;;;;;;59.08;29.33;;;3.80;99.90;;;4.51;100.00;102310.97;5064477;28;20108;-73
2022/01/25 10:39:53;;;;;;;61.63;30.75;;;3.80;99.90;;;4.47;100.00;102307.94;5064700;28;20063;-73
2022/01/25 10:42:33;;;;;;;60.63;28.77;;;3.80;99.90;;;4.46;100.00;102316.53;5059438;28;20094;-74
2022/01/25 10:45:13;;;;;;;56.95;29.08;;;3.80;99.90;;;4.40;100.00;102318.44;5052504;28;20021;-74
2022/01/25 10:47:52;;;;;;;55.47;27.52;;;3.70;99.90;;;4.44;100.00;102311.25;5052053;28;20017;-73
2022/01/25 10:50:42;;;;;;;61.95;29.00;;;3.70;99.90;;;4.36;100.00;102320.13;5051837;28;20025;-73
2022/01/25 10:53:16;;;;;;;61.85;27.00;;;3.70;99.90;;;4.34;100.00;102308.47;5052132;28;20071;-72
2022/01/25 10:55:54;;;;;;;58.50;27.17;;;3.70;99.90;;;4.32;100.00;102304.34;5050540;28;20052;-75
2022/01/25 10:58:22;;;;;;;57.85;27.15;;;3.70;99.90;;;4.34;100.00;102297.41;5052266;28;20114;-74
2022/01/25 11:00:51;;;;;;;54.60;26.95;;;3.70;99.90;;;4.41;100.00;102299.91;5052283;28;20039;-73
2022/01/25 11:03:40;;;;;;;57.13;26.63;;;3.80;99.90;;;4.35;100.00;102295.47;5051823;28;20021;-75
2022/01/25 11:06:32;;;;;;;53.47;25.08;;;3.70;99.90;;;4.42;100.00;102307.09;5052014;28;20408;-73
2022/01/25 11:09:01;;;;;;;56.63;26.73;;;3.70;99.90;;;4.43;100.00;102294.94;5049083;28;20033;-73
2022/01/25 11:11:46;;;;;;;57.05;26.60;;;3.70;99.90;;;4.54;100.00;102305.72;5034305;28;20025;-73
2022/01/25 11:17:03;;;;;;;51.47;24.63;;;3.70;99.90;;;4.53;100.00;102305.97;5052746;28;20083;-73
2022/01/25 11:19:29;;;;;;;56.22;26.02;;;3.80;99.90;;;4.48;100.00;102300.47;5051852;28;20483;-73
2022/01/25 11:21:59;;;;;;;56.50;25.08;;;3.80;99.90;;;4.48;100.00;102301.28;5051755;28;20025;-74
2022/01/25 11:24:31;;;;;;;52.55;25.58;;;3.70;99.90;;;4.41;100.00;102297.97;5051965;28;20108;-73
2022/01/25 11:27:05;;;;;;;57.83;24.83;;;3.80;99.90;;;4.36;100.00;102295.22;5035865;28;20048;-75
2022/01/25 11:29:41;;;;;;;53.03;24.00;;;3.70;99.90;;;4.46;100.00;102295.22;5031927;28;20052;-75
2022/01/25 11:32:25;;;;;;;53.42;25.20;;;3.70;99.90;;;4.50;100.00;102301.84;5046976;28;20044;-74
2022/01/25 11:34:53;;;;;;;48.33;22.60;;;3.70;99.90;;;4.55;100.00;102290.78;5032042;28;20064;-73
2022/01/25 11:37:32;;;;;;;48.72;22.85;;;3.70;99.90;;;4.48;100.00;102292.16;5031648;28;20524;-72
2022/01/25 11:39:58;;;;;;;46.55;21.17;;;3.70;99.90;;;4.54;100.00;102291.03;5047142;28;20125;-73
2022/01/25 11:42:26;;;;;;;52.28;22.60;;;3.80;99.90;;;4.51;100.00;102291.59;5031606;28;20105;-72
2022/01/25 11:44:58;;;;;;;47.15;22.30;;;3.70;99.90;;;4.57;100.00;102283.00;5031870;28;20427;-73
2022/01/25 11:47:37;;;;;;;51.17;22.75;;;3.80;99.90;;;4.57;100.00;102273.88;5031489;28;20018;-73
2022/01/25 11:50:12;;;;;;;44.80;20.90;;;3.80;99.90;;;4.52;100.00;102288.56;5035374;28;20037;-73
2022/01/25 11:52:55;;;;;;;42.88;19.63;;;3.70;99.90;;;4.50;100.00;102285.22;5034422;28;20029;-73
2022/01/25 11:55:36;;;;;;;50.13;22.02;;;3.70;99.90;;;4.46;100.00;102294.38;5035614;28;20461;-74
2022/01/25 11:58:04;;;;;;;45.78;20.85;;;3.70;99.90;;;4.51;100.00;102286.91;5035733;28;20029;-74
2022/01/25 12:00:56;;;;;;;45.60;20.83;;;3.70;99.90;;;4.46;100.00;102292.44;5035127;28;20044;-73
2022/01/25 12:03:34;;;;;;;43.65;20.48;;;3.70;99.90;;;4.45;100.00;102285.25;5035522;28;20039;-72
2022/01/25 12:06:27;;;;;;;47.05;21.58;;;3.70;99.90;;;4.41;100.00;102277.78;5035723;28;20034;-73
2022/01/25 12:09:42;;;;;;;38.75;18.48;;;3.70;99.90;;;4.49;100.00;102277.22;5035345;28;20067;-73
2022/01/25 12:12:17;;;;;;;48.13;21.15;;;3.70;99.90;;;4.53;100.00;102272.78;5035249;28;20025;-75
2022/01/25 12:14:54;;;;;;;50.85;23.60;;;3.80;99.90;;;4.53;100.00;102270.84;5050791;28;20448;-73